sensor_id;sensor_type;location;lat;lon;timestamp;P1;durP1;ratioP1;P2;durP2;ratioP2
29902;SDS011;30288;50.514;9.678;2023-05-07T00:00:17;7.70;;;3.63;;
29902;SDS011;30288;50.514;9.678;2023-05-07T00:02:23;12.07;;;3.70;;
29902;SDS011;30288;50.514;9.678;2023-05-07T00:04:28;13.77;;;4.18;;
29902;SDS011;30288;50.514;9.678;2023-05-07T00:06:38;8.82;;;4.13;;
29902;SDS011;30288;50.514;9.678;2023-05-07T00:08:44;7.75;;;3.05;;
29902;SDS011;30288;50.514;9.678;2023-05-07T00:10:49;13.20;;;3.95;;
29902;SDS011;30288;50.514;9.678;2023-05-07T00:12:57;8.80;;;3.90;;
29902;SDS011;30288;50.514;9.678;2023-05-07T00:15:02;10.40;;;4.05;;
29902;SDS011;30288;50.514;9.678;2023-05-07T00:17:10;6.45;;;3.90;;
29902;SDS011;30288;50.514;9.678;2023-05-07T00:19:15;10.80;;;3.85;;
29902;SDS011;30288;50.514;9.678;2023-05-07T00:21:20;12.90;;;4.07;;
29902;SDS011;30288;50.514;9.678;2023-05-07T00:23:28;6.57;;;4.03;;
29902;SDS011;30288;50.514;9.678;2023-05-07T00:25:33;7.97;;;4.03;;
29902;SDS011;30288;50.514;9.678;2023-05-07T00:27:38;8.32;;;3.95;;
29902;SDS011;30288;50.514;9.678;2023-05-07T00:29:46;6.43;;;3.60;;
29902;SDS011;30288;50.514;9.678;2023-05-07T00:31:51;10.85;;;5.25;;
29902;SDS011;30288;50.514;9.678;2023-05-07T00:33:57;6.30;;;3.60;;
29902;SDS011;30288;50.514;9.678;2023-05-07T00:36:02;7.45;;;3.83;;
29902;SDS011;30288;50.514;9.678;2023-05-07T00:38:08;9.98;;;4.38;;
29902;SDS011;30288;50.514;9.678;2023-05-07T00:40:13;8.13;;;4.15;;
29902;SDS011;30288;50.514;9.678;2023-05-07T00:42:19;12.20;;;4.90;;
29902;SDS011;30288;50.514;9.678;2023-05-07T00:44:25;6.70;;;3.50;;
29902;SDS011;30288;50.514;9.678;2023-05-07T00:46:33;9.77;;;4.28;;
29902;SDS011;30288;50.514;9.678;2023-05-07T00:48:39;9.85;;;4.07;;
29902;SDS011;30288;50.514;9.678;2023-05-07T00:50:44;7.82;;;4.20;;
29902;SDS011;30288;50.514;9.678;2023-05-07T00:52:50;10.23;;;4.35;;
29902;SDS011;30288;50.514;9.678;2023-05-07T00:54:56;10.48;;;4.30;;
29902;SDS011;30288;50.514;9.678;2023-05-07T00:57:01;5.75;;;3.35;;
29902;SDS011;30288;50.514;9.678;2023-05-07T00:59:08;7.30;;;3.92;;
29902;SDS011;30288;50.514;9.678;2023-05-07T01:01:13;12.07;;;3.47;;
29902;SDS011;30288;50.514;9.678;2023-05-07T01:03:22;8.88;;;4.40;;
29902;SDS011;30288;50.514;9.678;2023-05-07T01:05:27;9.82;;;4.07;;
29902;SDS011;30288;50.514;9.678;2023-05-07T01:07:34;11.93;;;4.82;;
29902;SDS011;30288;50.514;9.678;2023-05-07T01:09:41;12.35;;;4.80;;
29902;SDS011;30288;50.514;9.678;2023-05-07T01:11:46;17.52;;;5.05;;
29902;SDS011;30288;50.514;9.678;2023-05-07T01:13:53;8.68;;;4.00;;
29902;SDS011;30288;50.514;9.678;2023-05-07T01:15:58;11.98;;;4.63;;
29902;SDS011;30288;50.514;9.678;2023-05-07T01:18:04;8.85;;;4.05;;
29902;SDS011;30288;50.514;9.678;2023-05-07T01:20:12;10.50;;;4.30;;
29902;SDS011;30288;50.514;9.678;2023-05-07T01:22:25;7.32;;;3.95;;
29902;SDS011;30288;50.514;9.678;2023-05-07T01:24:35;9.80;;;4.35;;
29902;SDS011;30288;50.514;9.678;2023-05-07T01:26:42;10.57;;;3.92;;
29902;SDS011;30288;50.514;9.678;2023-05-07T01:28:50;9.48;;;4.50;;
29902;SDS011;30288;50.514;9.678;2023-05-07T01:30:56;9.73;;;4.38;;
29902;SDS011;30288;50.514;9.678;2023-05-07T01:33:09;9.95;;;4.20;;
29902;SDS011;30288;50.514;9.678;2023-05-07T01:35:19;8.68;;;4.55;;
29902;SDS011;30288;50.514;9.678;2023-05-07T01:37:31;9.13;;;4.65;;
29902;SDS011;30288;50.514;9.678;2023-05-07T01:39:37;10.55;;;4.15;;
29902;SDS011;30288;50.514;9.678;2023-05-07T01:41:44;8.60;;;4.65;;
29902;SDS011;30288;50.514;9.678;2023-05-07T01:43:50;7.85;;;3.80;;
29902;SDS011;30288;50.514;9.678;2023-05-07T01:45:56;10.65;;;3.78;;
29902;SDS011;30288;50.514;9.678;2023-05-07T01:48:03;12.02;;;4.75;;
29902;SDS011;30288;50.514;9.678;2023-05-07T01:50:10;8.13;;;3.75;;
29902;SDS011;30288;50.514;9.678;2023-05-07T01:52:16;15.65;;;4.47;;
29902;SDS011;30288;50.514;9.678;2023-05-07T01:54:27;7.28;;;4.45;;
29902;SDS011;30288;50.514;9.678;2023-05-07T01:56:34;7.82;;;4.40;;
29902;SDS011;30288;50.514;9.678;2023-05-07T01:58:40;13.75;;;4.93;;
29902;SDS011;30288;50.514;9.678;2023-05-07T02:00:45;8.15;;;4.22;;
29902;SDS011;30288;50.514;9.678;2023-05-07T02:02:50;6.60;;;3.83;;
29902;SDS011;30288;50.514;9.678;2023-05-07T02:05:05;10.13;;;4.15;;
29902;SDS011;30288;50.514;9.678;2023-05-07T02:07:13;8.82;;;4.28;;
29902;SDS011;30288;50.514;9.678;2023-05-07T02:09:19;8.60;;;4.40;;
29902;SDS011;30288;50.514;9.678;2023-05-07T02:11:28;15.27;;;5.20;;
29902;SDS011;30288;50.514;9.678;2023-05-07T02:13:33;10.93;;;4.70;;
29902;SDS011;30288;50.514;9.678;2023-05-07T02:15:39;11.88;;;4.97;;
29902;SDS011;30288;50.514;9.678;2023-05-07T02:17:58;10.48;;;4.90;;
29902;SDS011;30288;50.514;9.678;2023-05-07T02:20:05;16.10;;;4.82;;
29902;SDS011;30288;50.514;9.678;2023-05-07T02:22:15;8.57;;;5.25;;
29902;SDS011;30288;50.514;9.678;2023-05-07T02:24:21;13.02;;;4.65;;
29902;SDS011;30288;50.514;9.678;2023-05-07T02:26:28;8.65;;;4.43;;
29902;SDS011;30288;50.514;9.678;2023-05-07T02:28:33;10.13;;;4.55;;
29902;SDS011;30288;50.514;9.678;2023-05-07T02:30:40;9.70;;;5.20;;
29902;SDS011;30288;50.514;9.678;2023-05-07T02:32:45;9.15;;;4.60;;
29902;SDS011;30288;50.514;9.678;2023-05-07T02:34:51;9.95;;;4.88;;
29902;SDS011;30288;50.514;9.678;2023-05-07T02:36:56;8.30;;;4.90;;
29902;SDS011;30288;50.514;9.678;2023-05-07T02:39:01;14.52;;;4.80;;
29902;SDS011;30288;50.514;9.678;2023-05-07T02:41:07;14.07;;;5.35;;
29902;SDS011;30288;50.514;9.678;2023-05-07T02:43:15;13.50;;;5.18;;
29902;SDS011;30288;50.514;9.678;2023-05-07T02:45:22;10.40;;;5.57;;
29902;SDS011;30288;50.514;9.678;2023-05-07T02:47:28;9.68;;;5.75;;
29902;SDS011;30288;50.514;9.678;2023-05-07T02:49:35;11.20;;;6.40;;
29902;SDS011;30288;50.514;9.678;2023-05-07T02:51:42;10.45;;;6.32;;
29902;SDS011;30288;50.514;9.678;2023-05-07T02:53:53;11.38;;;6.50;;
29902;SDS011;30288;50.514;9.678;2023-05-07T02:55:59;10.23;;;6.65;;
29902;SDS011;30288;50.514;9.678;2023-05-07T02:58:05;10.85;;;6.88;;
29902;SDS011;30288;50.514;9.678;2023-05-07T03:00:18;13.02;;;6.60;;
29902;SDS011;30288;50.514;9.678;2023-05-07T03:02:44;14.13;;;7.00;;
29902;SDS011;30288;50.514;9.678;2023-05-07T03:04:50;11.80;;;7.25;;
29902;SDS011;30288;50.514;9.678;2023-05-07T03:06:55;11.35;;;6.32;;
29902;SDS011;30288;50.514;9.678;2023-05-07T03:09:00;11.20;;;6.75;;
29902;SDS011;30288;50.514;9.678;2023-05-07T03:11:05;13.77;;;8.00;;
29902;SDS011;30288;50.514;9.678;2023-05-07T03:13:11;10.68;;;7.78;;
29902;SDS011;30288;50.514;9.678;2023-05-07T03:15:19;11.65;;;8.68;;
29902;SDS011;30288;50.514;9.678;2023-05-07T03:17:24;14.65;;;8.75;;
29902;SDS011;30288;50.514;9.678;2023-05-07T03:19:29;13.88;;;9.98;;
29902;SDS011;30288;50.514;9.678;2023-05-07T03:21:35;15.10;;;9.57;;
29902;SDS011;30288;50.514;9.678;2023-05-07T03:23:40;17.50;;;9.70;;
29902;SDS011;30288;50.514;9.678;2023-05-07T03:25:45;13.88;;;9.80;;
29902;SDS011;30288;50.514;9.678;2023-05-07T03:27:51;15.32;;;10.85;;
29902;SDS011;30288;50.514;9.678;2023-05-07T03:29:59;14.32;;;10.95;;
29902;SDS011;30288;50.514;9.678;2023-05-07T03:32:07;17.20;;;12.10;;
29902;SDS011;30288;50.514;9.678;2023-05-07T03:34:13;15.52;;;10.70;;
29902;SDS011;30288;50.514;9.678;2023-05-07T03:36:18;19.00;;;14.30;;
29902;SDS011;30288;50.514;9.678;2023-05-07T03:38:24;17.05;;;11.75;;
29902;SDS011;30288;50.514;9.678;2023-05-07T03:40:29;18.42;;;11.68;;
29902;SDS011;30288;50.514;9.678;2023-05-07T03:42:35;18.42;;;13.05;;
29902;SDS011;30288;50.514;9.678;2023-05-07T03:44:40;19.05;;;13.07;;
29902;SDS011;30288;50.514;9.678;2023-05-07T03:46:46;17.42;;;13.05;;
29902;SDS011;30288;50.514;9.678;2023-05-07T03:48:53;18.67;;;14.23;;
29902;SDS011;30288;50.514;9.678;2023-05-07T03:50:59;24.05;;;17.25;;
29902;SDS011;30288;50.514;9.678;2023-05-07T03:53:07;21.48;;;15.63;;
29902;SDS011;30288;50.514;9.678;2023-05-07T03:55:13;21.38;;;16.50;;
29902;SDS011;30288;50.514;9.678;2023-05-07T03:57:25;21.58;;;17.38;;
29902;SDS011;30288;50.514;9.678;2023-05-07T03:59:32;26.30;;;19.30;;
29902;SDS011;30288;50.514;9.678;2023-05-07T04:01:37;25.95;;;18.70;;
29902;SDS011;30288;50.514;9.678;2023-05-07T04:03:42;24.27;;;18.77;;
29902;SDS011;30288;50.514;9.678;2023-05-07T04:05:50;26.63;;;19.15;;
29902;SDS011;30288;50.514;9.678;2023-05-07T04:07:57;25.50;;;18.67;;
29902;SDS011;30288;50.514;9.678;2023-05-07T04:10:12;26.70;;;19.25;;
29902;SDS011;30288;50.514;9.678;2023-05-07T04:12:20;24.63;;;18.27;;
29902;SDS011;30288;50.514;9.678;2023-05-07T04:14:25;27.85;;;20.17;;
29902;SDS011;30288;50.514;9.678;2023-05-07T04:16:32;26.98;;;19.08;;
29902;SDS011;30288;50.514;9.678;2023-05-07T04:18:39;24.45;;;18.92;;
29902;SDS011;30288;50.514;9.678;2023-05-07T04:20:45;24.15;;;17.58;;
29902;SDS011;30288;50.514;9.678;2023-05-07T04:22:53;26.77;;;18.73;;
29902;SDS011;30288;50.514;9.678;2023-05-07T04:24:59;25.48;;;19.38;;
29902;SDS011;30288;50.514;9.678;2023-05-07T04:27:04;26.10;;;19.52;;
29902;SDS011;30288;50.514;9.678;2023-05-07T04:29:09;22.17;;;16.88;;
29902;SDS011;30288;50.514;9.678;2023-05-07T04:31:15;25.40;;;18.80;;
29902;SDS011;30288;50.514;9.678;2023-05-07T04:33:25;26.90;;;20.35;;
29902;SDS011;30288;50.514;9.678;2023-05-07T04:35:32;26.92;;;19.45;;
29902;SDS011;30288;50.514;9.678;2023-05-07T04:37:38;26.02;;;19.83;;
29902;SDS011;30288;50.514;9.678;2023-05-07T04:39:46;24.48;;;19.73;;
29902;SDS011;30288;50.514;9.678;2023-05-07T04:41:52;31.33;;;22.08;;
29902;SDS011;30288;50.514;9.678;2023-05-07T04:43:57;25.63;;;20.80;;
29902;SDS011;30288;50.514;9.678;2023-05-07T04:46:04;28.63;;;21.70;;
29902;SDS011;30288;50.514;9.678;2023-05-07T04:48:10;26.88;;;20.80;;
29902;SDS011;30288;50.514;9.678;2023-05-07T04:50:16;34.60;;;21.88;;
29902;SDS011;30288;50.514;9.678;2023-05-07T04:52:28;29.10;;;21.45;;
29902;SDS011;30288;50.514;9.678;2023-05-07T04:54:34;29.35;;;20.88;;
29902;SDS011;30288;50.514;9.678;2023-05-07T04:56:42;29.58;;;22.52;;
29902;SDS011;30288;50.514;9.678;2023-05-07T04:58:48;26.20;;;20.27;;
29902;SDS011;30288;50.514;9.678;2023-05-07T05:00:55;30.77;;;21.83;;
29902;SDS011;30288;50.514;9.678;2023-05-07T05:03:01;29.98;;;21.38;;
29902;SDS011;30288;50.514;9.678;2023-05-07T05:05:07;28.73;;;21.33;;
29902;SDS011;30288;50.514;9.678;2023-05-07T05:07:13;28.65;;;23.15;;
29902;SDS011;30288;50.514;9.678;2023-05-07T05:09:18;27.45;;;21.75;;
29902;SDS011;30288;50.514;9.678;2023-05-07T05:11:24;34.00;;;21.98;;
29902;SDS011;30288;50.514;9.678;2023-05-07T05:13:32;29.92;;;22.40;;
29902;SDS011;30288;50.514;9.678;2023-05-07T05:15:46;34.42;;;23.38;;
29902;SDS011;30288;50.514;9.678;2023-05-07T05:17:51;28.20;;;22.52;;
29902;SDS011;30288;50.514;9.678;2023-05-07T05:19:57;29.42;;;23.25;;
29902;SDS011;30288;50.514;9.678;2023-05-07T05:22:03;30.20;;;23.50;;
29902;SDS011;30288;50.514;9.678;2023-05-07T05:24:09;34.60;;;24.63;;
29902;SDS011;30288;50.514;9.678;2023-05-07T05:26:14;29.70;;;22.17;;
29902;SDS011;30288;50.514;9.678;2023-05-07T05:28:20;28.02;;;22.17;;
29902;SDS011;30288;50.514;9.678;2023-05-07T05:30:28;30.73;;;21.70;;
29902;SDS011;30288;50.514;9.678;2023-05-07T05:32:33;32.17;;;20.40;;
29902;SDS011;30288;50.514;9.678;2023-05-07T05:34:40;34.67;;;23.25;;
29902;SDS011;30288;50.514;9.678;2023-05-07T05:36:45;30.83;;;22.42;;
29902;SDS011;30288;50.514;9.678;2023-05-07T05:38:51;30.25;;;20.40;;
29902;SDS011;30288;50.514;9.678;2023-05-07T05:40:56;27.58;;;21.83;;
29902;SDS011;30288;50.514;9.678;2023-05-07T05:43:03;31.35;;;22.35;;
29902;SDS011;30288;50.514;9.678;2023-05-07T05:45:09;31.45;;;22.98;;
29902;SDS011;30288;50.514;9.678;2023-05-07T05:47:17;31.35;;;22.52;;
29902;SDS011;30288;50.514;9.678;2023-05-07T05:49:23;27.05;;;22.42;;
29902;SDS011;30288;50.514;9.678;2023-05-07T05:51:29;28.65;;;20.73;;
29902;SDS011;30288;50.514;9.678;2023-05-07T05:53:34;25.52;;;20.17;;
29902;SDS011;30288;50.514;9.678;2023-05-07T05:55:40;28.48;;;21.35;;
29902;SDS011;30288;50.514;9.678;2023-05-07T05:57:46;30.60;;;21.73;;
29902;SDS011;30288;50.514;9.678;2023-05-07T05:59:52;28.67;;;22.05;;
29902;SDS011;30288;50.514;9.678;2023-05-07T06:01:58;28.77;;;20.38;;
29902;SDS011;30288;50.514;9.678;2023-05-07T06:04:06;30.90;;;21.02;;
29902;SDS011;30288;50.514;9.678;2023-05-07T06:06:12;27.52;;;20.60;;
29902;SDS011;30288;50.514;9.678;2023-05-07T06:08:18;28.65;;;21.63;;
29902;SDS011;30288;50.514;9.678;2023-05-07T06:10:24;31.38;;;21.55;;
29902;SDS011;30288;50.514;9.678;2023-05-07T06:12:29;26.38;;;19.63;;
29902;SDS011;30288;50.514;9.678;2023-05-07T06:14:36;25.90;;;19.40;;
29902;SDS011;30288;50.514;9.678;2023-05-07T06:16:43;24.08;;;19.23;;
29902;SDS011;30288;50.514;9.678;2023-05-07T06:18:49;27.55;;;19.15;;
29902;SDS011;30288;50.514;9.678;2023-05-07T06:20:56;28.08;;;20.67;;
29902;SDS011;30288;50.514;9.678;2023-05-07T06:23:05;27.52;;;19.55;;
29902;SDS011;30288;50.514;9.678;2023-05-07T06:25:10;28.92;;;20.40;;
29902;SDS011;30288;50.514;9.678;2023-05-07T06:27:17;27.35;;;19.95;;
29902;SDS011;30288;50.514;9.678;2023-05-07T06:29:23;29.38;;;19.17;;
29902;SDS011;30288;50.514;9.678;2023-05-07T06:31:29;24.88;;;19.42;;
29902;SDS011;30288;50.514;9.678;2023-05-07T06:33:39;24.98;;;19.73;;
29902;SDS011;30288;50.514;9.678;2023-05-07T06:35:45;27.30;;;19.50;;
29902;SDS011;30288;50.514;9.678;2023-05-07T06:37:53;28.50;;;19.85;;
29902;SDS011;30288;50.514;9.678;2023-05-07T06:40:01;24.83;;;18.25;;
29902;SDS011;30288;50.514;9.678;2023-05-07T06:42:09;25.88;;;19.00;;
29902;SDS011;30288;50.514;9.678;2023-05-07T06:44:17;27.45;;;19.48;;
29902;SDS011;30288;50.514;9.678;2023-05-07T06:46:32;25.73;;;19.45;;
29902;SDS011;30288;50.514;9.678;2023-05-07T06:48:39;27.00;;;19.05;;
29902;SDS011;30288;50.514;9.678;2023-05-07T06:50:44;28.38;;;19.20;;
29902;SDS011;30288;50.514;9.678;2023-05-07T06:52:49;24.52;;;18.15;;
29902;SDS011;30288;50.514;9.678;2023-05-07T06:54:57;25.10;;;18.30;;
29902;SDS011;30288;50.514;9.678;2023-05-07T06:57:02;24.08;;;16.85;;
29902;SDS011;30288;50.514;9.678;2023-05-07T06:59:09;26.05;;;17.48;;
29902;SDS011;30288;50.514;9.678;2023-05-07T07:01:15;23.33;;;17.48;;
29902;SDS011;30288;50.514;9.678;2023-05-07T07:03:21;25.25;;;17.42;;
29902;SDS011;30288;50.514;9.678;2023-05-07T07:05:28;25.25;;;18.15;;
29902;SDS011;30288;50.514;9.678;2023-05-07T07:07:35;26.02;;;18.00;;
29902;SDS011;30288;50.514;9.678;2023-05-07T07:09:43;24.58;;;17.85;;
29902;SDS011;30288;50.514;9.678;2023-05-07T07:11:52;23.85;;;16.95;;
29902;SDS011;30288;50.514;9.678;2023-05-07T07:13:58;27.13;;;17.35;;
29902;SDS011;30288;50.514;9.678;2023-05-07T07:16:06;23.08;;;16.85;;
29902;SDS011;30288;50.514;9.678;2023-05-07T07:18:12;22.42;;;16.63;;
29902;SDS011;30288;50.514;9.678;2023-05-07T07:20:17;23.17;;;17.15;;
29902;SDS011;30288;50.514;9.678;2023-05-07T07:22:23;21.15;;;16.02;;
29902;SDS011;30288;50.514;9.678;2023-05-07T07:24:28;23.75;;;17.00;;
29902;SDS011;30288;50.514;9.678;2023-05-07T07:26:40;21.70;;;16.55;;
29902;SDS011;30288;50.514;9.678;2023-05-07T07:28:45;22.25;;;15.73;;
29902;SDS011;30288;50.514;9.678;2023-05-07T07:30:53;22.73;;;16.15;;
29902;SDS011;30288;50.514;9.678;2023-05-07T07:32:59;23.33;;;16.05;;
29902;SDS011;30288;50.514;9.678;2023-05-07T07:35:08;23.60;;;16.15;;
29902;SDS011;30288;50.514;9.678;2023-05-07T07:37:14;20.40;;;15.50;;
29902;SDS011;30288;50.514;9.678;2023-05-07T07:39:20;19.95;;;15.85;;
29902;SDS011;30288;50.514;9.678;2023-05-07T07:41:28;21.60;;;15.60;;
29902;SDS011;30288;50.514;9.678;2023-05-07T07:43:36;23.00;;;16.63;;
29902;SDS011;30288;50.514;9.678;2023-05-07T07:45:41;21.15;;;14.95;;
29902;SDS011;30288;50.514;9.678;2023-05-07T07:47:48;20.23;;;15.07;;
29902;SDS011;30288;50.514;9.678;2023-05-07T07:49:54;22.00;;;15.82;;
29902;SDS011;30288;50.514;9.678;2023-05-07T07:51:59;21.25;;;15.45;;
29902;SDS011;30288;50.514;9.678;2023-05-07T07:54:05;20.02;;;14.32;;
29902;SDS011;30288;50.514;9.678;2023-05-07T07:56:11;21.50;;;14.98;;
29902;SDS011;30288;50.514;9.678;2023-05-07T07:58:17;19.17;;;14.77;;
29902;SDS011;30288;50.514;9.678;2023-05-07T08:00:26;21.88;;;14.68;;
29902;SDS011;30288;50.514;9.678;2023-05-07T08:02:31;20.23;;;14.10;;
29902;SDS011;30288;50.514;9.678;2023-05-07T08:04:36;20.27;;;14.60;;
29902;SDS011;30288;50.514;9.678;2023-05-07T08:06:43;20.75;;;13.77;;
29902;SDS011;30288;50.514;9.678;2023-05-07T08:08:48;17.48;;;13.30;;
29902;SDS011;30288;50.514;9.678;2023-05-07T08:10:53;20.55;;;14.02;;
29902;SDS011;30288;50.514;9.678;2023-05-07T08:13:04;20.13;;;13.65;;
29902;SDS011;30288;50.514;9.678;2023-05-07T08:15:11;20.65;;;13.70;;
29902;SDS011;30288;50.514;9.678;2023-05-07T08:17:20;20.20;;;14.65;;
29902;SDS011;30288;50.514;9.678;2023-05-07T08:19:26;18.10;;;13.45;;
29902;SDS011;30288;50.514;9.678;2023-05-07T08:21:32;18.33;;;13.52;;
29902;SDS011;30288;50.514;9.678;2023-05-07T08:23:37;21.08;;;13.45;;
29902;SDS011;30288;50.514;9.678;2023-05-07T08:25:42;17.13;;;12.85;;
29902;SDS011;30288;50.514;9.678;2023-05-07T08:27:49;18.23;;;12.88;;
29902;SDS011;30288;50.514;9.678;2023-05-07T08:29:54;16.67;;;12.25;;
29902;SDS011;30288;50.514;9.678;2023-05-07T08:31:59;17.42;;;12.63;;
29902;SDS011;30288;50.514;9.678;2023-05-07T08:34:07;17.65;;;13.15;;
29902;SDS011;30288;50.514;9.678;2023-05-07T08:36:16;17.20;;;12.05;;
29902;SDS011;30288;50.514;9.678;2023-05-07T08:38:22;17.13;;;12.25;;
29902;SDS011;30288;50.514;9.678;2023-05-07T08:40:27;19.52;;;11.95;;
29902;SDS011;30288;50.514;9.678;2023-05-07T08:42:35;18.08;;;12.65;;
29902;SDS011;30288;50.514;9.678;2023-05-07T08:44:41;19.80;;;12.18;;
29902;SDS011;30288;50.514;9.678;2023-05-07T08:46:50;16.63;;;11.73;;
29902;SDS011;30288;50.514;9.678;2023-05-07T08:48:58;17.02;;;11.63;;
29902;SDS011;30288;50.514;9.678;2023-05-07T08:51:06;15.98;;;12.23;;
29902;SDS011;30288;50.514;9.678;2023-05-07T08:53:13;17.00;;;12.10;;
29902;SDS011;30288;50.514;9.678;2023-05-07T08:55:20;18.60;;;12.15;;
29902;SDS011;30288;50.514;9.678;2023-05-07T08:57:26;15.73;;;11.43;;
29902;SDS011;30288;50.514;9.678;2023-05-07T08:59:32;14.93;;;11.55;;
29902;SDS011;30288;50.514;9.678;2023-05-07T09:01:39;14.55;;;11.05;;
29902;SDS011;30288;50.514;9.678;2023-05-07T09:03:45;16.45;;;11.57;;
29902;SDS011;30288;50.514;9.678;2023-05-07T09:05:51;15.00;;;11.95;;
29902;SDS011;30288;50.514;9.678;2023-05-07T09:08:01;18.77;;;11.63;;
29902;SDS011;30288;50.514;9.678;2023-05-07T09:10:07;15.07;;;10.93;;
29902;SDS011;30288;50.514;9.678;2023-05-07T09:12:15;15.63;;;11.38;;
29902;SDS011;30288;50.514;9.678;2023-05-07T09:14:22;17.63;;;12.35;;
29902;SDS011;30288;50.514;9.678;2023-05-07T09:16:29;13.18;;;9.95;;
29902;SDS011;30288;50.514;9.678;2023-05-07T09:18:39;15.48;;;11.40;;
29902;SDS011;30288;50.514;9.678;2023-05-07T09:20:47;14.50;;;9.88;;
29902;SDS011;30288;50.514;9.678;2023-05-07T09:22:55;13.05;;;9.93;;
29902;SDS011;30288;50.514;9.678;2023-05-07T09:25:04;14.77;;;10.65;;
29902;SDS011;30288;50.514;9.678;2023-05-07T09:27:12;15.73;;;10.93;;
29902;SDS011;30288;50.514;9.678;2023-05-07T09:29:19;15.38;;;11.23;;
29902;SDS011;30288;50.514;9.678;2023-05-07T09:31:24;12.82;;;9.85;;
29902;SDS011;30288;50.514;9.678;2023-05-07T09:33:30;12.23;;;9.40;;
29902;SDS011;30288;50.514;9.678;2023-05-07T09:35:37;13.35;;;8.80;;
29902;SDS011;30288;50.514;9.678;2023-05-07T09:37:47;12.15;;;8.82;;
29902;SDS011;30288;50.514;9.678;2023-05-07T09:39:53;10.38;;;7.93;;
29902;SDS011;30288;50.514;9.678;2023-05-07T09:42:03;13.95;;;9.32;;
29902;SDS011;30288;50.514;9.678;2023-05-07T09:44:10;13.05;;;9.27;;
29902;SDS011;30288;50.514;9.678;2023-05-07T09:46:21;13.38;;;9.98;;
29902;SDS011;30288;50.514;9.678;2023-05-07T09:48:39;12.30;;;9.18;;
29902;SDS011;30288;50.514;9.678;2023-05-07T09:50:48;11.43;;;8.88;;
29902;SDS011;30288;50.514;9.678;2023-05-07T09:52:58;11.07;;;8.23;;
29902;SDS011;30288;50.514;9.678;2023-05-07T09:55:04;12.98;;;8.73;;
29902;SDS011;30288;50.514;9.678;2023-05-07T09:57:14;9.55;;;7.78;;
29902;SDS011;30288;50.514;9.678;2023-05-07T09:59:26;13.73;;;8.25;;
29902;SDS011;30288;50.514;9.678;2023-05-07T10:01:36;11.82;;;8.25;;
29902;SDS011;30288;50.514;9.678;2023-05-07T10:03:42;10.68;;;7.90;;
29902;SDS011;30288;50.514;9.678;2023-05-07T10:05:49;12.27;;;9.15;;
29902;SDS011;30288;50.514;9.678;2023-05-07T10:07:56;12.43;;;7.80;;
29902;SDS011;30288;50.514;9.678;2023-05-07T10:10:08;11.95;;;8.10;;
29902;SDS011;30288;50.514;9.678;2023-05-07T10:12:19;11.02;;;8.13;;
29902;SDS011;30288;50.514;9.678;2023-05-07T10:14:25;11.95;;;7.93;;
29902;SDS011;30288;50.514;9.678;2023-05-07T10:16:33;10.93;;;8.25;;
29902;SDS011;30288;50.514;9.678;2023-05-07T10:18:45;11.23;;;8.15;;
29902;SDS011;30288;50.514;9.678;2023-05-07T10:20:54;15.88;;;8.18;;
29902;SDS011;30288;50.514;9.678;2023-05-07T10:23:09;11.55;;;7.72;;
29902;SDS011;30288;50.514;9.678;2023-05-07T10:25:23;12.25;;;8.57;;
29902;SDS011;30288;50.514;9.678;2023-05-07T10:27:41;11.35;;;8.52;;
29902;SDS011;30288;50.514;9.678;2023-05-07T10:29:49;11.65;;;7.78;;
29902;SDS011;30288;50.514;9.678;2023-05-07T10:34:44;10.38;;;6.85;;
29902;SDS011;30288;50.514;9.678;2023-05-07T10:36:55;12.40;;;7.65;;
29902;SDS011;30288;50.514;9.678;2023-05-07T10:39:02;12.27;;;8.02;;
29902;SDS011;30288;50.514;9.678;2023-05-07T10:41:09;11.90;;;7.47;;
29902;SDS011;30288;50.514;9.678;2023-05-07T10:43:21;11.85;;;8.20;;
29902;SDS011;30288;50.514;9.678;2023-05-07T10:45:31;9.15;;;7.07;;
29902;SDS011;30288;50.514;9.678;2023-05-07T10:50:25;10.30;;;7.55;;
29902;SDS011;30288;50.514;9.678;2023-05-07T10:52:35;9.68;;;6.65;;
29902;SDS011;30288;50.514;9.678;2023-05-07T10:54:45;9.32;;;6.57;;
29902;SDS011;30288;50.514;9.678;2023-05-07T10:56:50;10.45;;;7.22;;
29902;SDS011;30288;50.514;9.678;2023-05-07T11:01:55;10.23;;;7.35;;
29902;SDS011;30288;50.514;9.678;2023-05-07T11:04:14;10.63;;;7.18;;
29902;SDS011;30288;50.514;9.678;2023-05-07T11:06:38;9.45;;;6.75;;
29902;SDS011;30288;50.514;9.678;2023-05-07T11:08:52;10.85;;;6.63;;
29902;SDS011;30288;50.514;9.678;2023-05-07T11:11:08;10.00;;;6.78;;
29902;SDS011;30288;50.514;9.678;2023-05-07T11:13:42;10.77;;;6.32;;
29902;SDS011;30288;50.514;9.678;2023-05-07T11:16:21;8.93;;;6.60;;
29902;SDS011;30288;50.514;9.678;2023-05-07T11:18:50;8.45;;;6.07;;
29902;SDS011;30288;50.514;9.678;2023-05-07T11:21:11;9.10;;;5.95;;
29902;SDS011;30288;50.514;9.678;2023-05-07T11:26:09;10.02;;;6.30;;
29902;SDS011;30288;50.514;9.678;2023-05-07T11:28:15;8.52;;;6.22;;
29902;SDS011;30288;50.514;9.678;2023-05-07T11:30:30;8.48;;;5.63;;
29902;SDS011;30288;50.514;9.678;2023-05-07T11:32:39;7.60;;;5.05;;
29902;SDS011;30288;50.514;9.678;2023-05-07T11:34:44;8.75;;;5.57;;
29902;SDS011;30288;50.514;9.678;2023-05-07T11:36:52;9.57;;;5.82;;
29902;SDS011;30288;50.514;9.678;2023-05-07T11:39:23;7.63;;;5.43;;
29902;SDS011;30288;50.514;9.678;2023-05-07T11:41:33;8.32;;;5.45;;
29902;SDS011;30288;50.514;9.678;2023-05-07T11:43:53;7.15;;;5.60;;
29902;SDS011;30288;50.514;9.678;2023-05-07T11:46:07;8.57;;;5.65;;
29902;SDS011;30288;50.514;9.678;2023-05-07T11:48:18;8.60;;;5.00;;
29902;SDS011;30288;50.514;9.678;2023-05-07T11:50:25;9.65;;;5.30;;
29902;SDS011;30288;50.514;9.678;2023-05-07T11:52:30;7.20;;;4.68;;
29902;SDS011;30288;50.514;9.678;2023-05-07T11:54:36;7.22;;;5.10;;
29902;SDS011;30288;50.514;9.678;2023-05-07T11:56:41;8.05;;;5.47;;
29902;SDS011;30288;50.514;9.678;2023-05-07T11:58:49;10.23;;;5.53;;
29902;SDS011;30288;50.514;9.678;2023-05-07T12:00:54;13.50;;;6.03;;
29902;SDS011;30288;50.514;9.678;2023-05-07T12:03:02;7.03;;;4.68;;
29902;SDS011;30288;50.514;9.678;2023-05-07T12:05:11;7.75;;;4.45;;
29902;SDS011;30288;50.514;9.678;2023-05-07T12:07:17;6.70;;;4.40;;
29902;SDS011;30288;50.514;9.678;2023-05-07T12:09:22;7.20;;;4.47;;
29902;SDS011;30288;50.514;9.678;2023-05-07T12:11:27;6.93;;;4.50;;
29902;SDS011;30288;50.514;9.678;2023-05-07T12:13:33;6.63;;;4.03;;
29902;SDS011;30288;50.514;9.678;2023-05-07T12:15:38;6.65;;;3.55;;
29902;SDS011;30288;50.514;9.678;2023-05-07T12:17:43;11.13;;;3.60;;
29902;SDS011;30288;50.514;9.678;2023-05-07T12:19:50;6.13;;;3.70;;
29902;SDS011;30288;50.514;9.678;2023-05-07T12:21:59;6.53;;;3.70;;
29902;SDS011;30288;50.514;9.678;2023-05-07T12:24:05;7.32;;;4.00;;
29902;SDS011;30288;50.514;9.678;2023-05-07T12:26:12;7.43;;;3.80;;
29902;SDS011;30288;50.514;9.678;2023-05-07T12:28:17;8.43;;;3.80;;
29902;SDS011;30288;50.514;9.678;2023-05-07T12:30:24;6.50;;;4.40;;
29902;SDS011;30288;50.514;9.678;2023-05-07T12:32:29;6.28;;;3.97;;
29902;SDS011;30288;50.514;9.678;2023-05-07T12:34:37;8.23;;;4.10;;
29902;SDS011;30288;50.514;9.678;2023-05-07T12:36:46;6.82;;;4.05;;
29902;SDS011;30288;50.514;9.678;2023-05-07T12:38:55;6.35;;;4.20;;
29902;SDS011;30288;50.514;9.678;2023-05-07T12:41:01;7.05;;;3.97;;
29902;SDS011;30288;50.514;9.678;2023-05-07T12:43:07;6.55;;;3.90;;
29902;SDS011;30288;50.514;9.678;2023-05-07T12:45:13;6.82;;;4.20;;